N042SB EDLW-EHLE

Flight info

Callsign N042SB
Flight time N/A
Altitude 8000
Route DOMEG3Q DOMEG
Aircraft DA42/L-SBDGRY/S

Departure

Time 2026-04-29 16:37
Airport Dortmund Airport (EDLW)

Arrival

Time N/A
Airport Lelystad Airport (EHLE)
Time Latitude Longitude Altitude Speed Heading
2026-04-29 16:10 51.51237 7.60514 457 ft 0 kts 188°
2026-04-29 16:24 51.51236 7.60514 457 ft 0 kts 195°
2026-04-29 16:24 51.51241 7.60452 453 ft 12 kts 278°
2026-04-29 16:25 51.51211 7.60343 452 ft 9 kts 239°
2026-04-29 16:25 51.51174 7.60260 454 ft 6 kts 229°
2026-04-29 16:25 51.51170 7.60251 455 ft 0 kts 229°
2026-04-29 16:26 51.51169 7.60250 455 ft 1 kts 229°
2026-04-29 16:27 51.51164 7.60239 455 ft 4 kts 235°
2026-04-29 16:27 51.51161 7.60167 454 ft 7 kts 316°
2026-04-29 16:27 51.51205 7.60189 447 ft 8 kts 57°
2026-04-29 16:27 51.51233 7.60266 441 ft 9 kts 60°
2026-04-29 16:28 51.51262 7.60348 442 ft 8 kts 62°
2026-04-29 16:28 51.51289 7.60426 430 ft 7 kts 61°
2026-04-29 16:28 51.51317 7.60507 439 ft 9 kts 59°
2026-04-29 16:28 51.51349 7.60599 434 ft 10 kts 61°
2026-04-29 16:29 51.51381 7.60690 435 ft 10 kts 62°
2026-04-29 16:29 51.51419 7.60796 428 ft 12 kts 63°
2026-04-29 16:29 51.51450 7.60887 430 ft 8 kts 61°
2026-04-29 16:29 51.51475 7.60956 430 ft 8 kts 57°
2026-04-29 16:30 51.51506 7.61042 425 ft 9 kts 57°
2026-04-29 16:30 51.51567 7.61043 424 ft 8 kts 319°
2026-04-29 16:30 51.51568 7.60950 417 ft 8 kts 255°
2026-04-29 16:30 51.51552 7.60859 419 ft 10 kts 254°
2026-04-29 16:31 51.51534 7.60755 417 ft 7 kts 255°
2026-04-29 16:31 51.51526 7.60688 411 ft 1 kts 273°
2026-04-29 16:31 51.51526 7.60687 416 ft 0 kts 275°
2026-04-29 16:35 51.51527 7.60683 416 ft 3 kts 279°
2026-04-29 16:35 51.51556 7.60620 415 ft 9 kts 329°
2026-04-29 16:35 51.51610 7.60618 416 ft 9 kts 29°
2026-04-29 16:36 51.51636 7.60664 417 ft 0 kts 59°
2026-04-29 16:36 51.51710 7.60871 414 ft 52 kts 60°
2026-04-29 16:37 51.51952 7.61547 500 ft 78 kts 60°
2026-04-29 16:37 51.52233 7.62347 665 ft 83 kts 59°
2026-04-29 16:37 51.52515 7.63089 898 ft 76 kts 59°
2026-04-29 16:37 51.52704 7.63580 1064 ft 78 kts 59°
2026-04-29 16:38 51.53035 7.64636 1491 ft 76 kts 67°
2026-04-29 16:38 51.53312 7.65335 1783 ft 74 kts 56°
2026-04-29 16:38 51.53619 7.65988 2083 ft 73 kts 60°
2026-04-29 16:38 51.53942 7.66607 2343 ft 76 kts 53°
2026-04-29 16:39 51.54321 7.67209 2638 ft 74 kts 54°
2026-04-29 16:39 51.54663 7.67813 2935 ft 72 kts 54°
2026-04-29 16:39 51.55000 7.68406 3209 ft 71 kts 55°
2026-04-29 16:39 51.55330 7.68992 3479 ft 70 kts 55°
2026-04-29 16:40 51.55651 7.69591 3770 ft 70 kts 56°
2026-04-29 16:40 51.55964 7.70187 4064 ft 69 kts 57°
2026-04-29 16:40 51.56261 7.70778 4370 ft 69 kts 64°
2026-04-29 16:40 51.56540 7.71405 4656 ft 69 kts 62°
2026-04-29 16:41 51.56838 7.72016 4967 ft 70 kts 61°
2026-04-29 16:41 51.57134 7.72641 5240 ft 71 kts 63°
2026-04-29 16:41 51.57438 7.73294 5414 ft 80 kts 62°
2026-04-29 16:41 51.57785 7.74138 5441 ft 98 kts 63°
2026-04-29 16:42 51.58278 7.74989 5433 ft 116 kts 33°
2026-04-29 16:42 51.59137 7.74827 5434 ft 142 kts 335°
2026-04-29 16:42 51.59667 7.73425 5417 ft 156 kts 279°
2026-04-29 16:42 51.59734 7.71684 5414 ft 155 kts 273°
2026-04-29 16:43 51.59809 7.69978 5416 ft 152 kts 274°
2026-04-29 16:43 51.59878 7.68287 5412 ft 151 kts 274°
2026-04-29 16:43 51.59945 7.66603 5414 ft 150 kts 274°
2026-04-29 16:43 51.60010 7.64949 5435 ft 148 kts 273°
2026-04-29 16:44 51.60073 7.63314 5435 ft 148 kts 273°
2026-04-29 16:44 51.60146 7.61654 5433 ft 148 kts 274°
2026-04-29 16:44 51.60219 7.59996 5436 ft 148 kts 273°
2026-04-29 16:44 51.60309 7.58348 5423 ft 147 kts 284°
2026-04-29 16:45 51.60753 7.56912 5438 ft 144 kts 304°
2026-04-29 16:45 51.61244 7.55500 5437 ft 145 kts 303°
2026-04-29 16:45 51.61726 7.54094 5440 ft 146 kts 303°
2026-04-29 16:45 51.62216 7.52657 5443 ft 146 kts 303°
2026-04-29 16:46 51.62707 7.51226 5445 ft 146 kts 303°
2026-04-29 16:46 51.63197 7.49798 5466 ft 146 kts 303°
2026-04-29 16:46 51.63687 7.48375 5466 ft 145 kts 303°
2026-04-29 16:46 51.64176 7.46948 5467 ft 146 kts 303°
2026-04-29 16:47 51.64670 7.45531 5463 ft 145 kts 304°
2026-04-29 16:47 51.64992 7.44598 5463 ft 144 kts 303°
2026-04-29 16:47 51.65481 7.43192 5459 ft 144 kts 303°
2026-04-29 16:47 51.66127 7.41306 5462 ft 146 kts 303°
2026-04-29 16:48 51.66621 7.39865 5467 ft 147 kts 303°
2026-04-29 16:48 51.67121 7.38430 5469 ft 148 kts 303°
2026-04-29 16:48 51.67622 7.36986 5472 ft 148 kts 303°
2026-04-29 16:48 51.67961 7.36004 5470 ft 148 kts 303°
2026-04-29 16:49 51.68462 7.34555 5474 ft 148 kts 303°
2026-04-29 16:49 51.68957 7.33134 5470 ft 147 kts 303°
2026-04-29 16:49 51.69457 7.31702 5471 ft 146 kts 303°
2026-04-29 16:49 51.69961 7.30280 5467 ft 146 kts 303°
2026-04-29 16:50 51.70380 7.28775 5463 ft 148 kts 294°
2026-04-29 16:50 51.70765 7.27225 5464 ft 149 kts 294°